Time;durP1;ratioP1;P1;durP2;ratioP2;P2;SDS_P1;SDS_P2;PMS_P1;PMS_P2;Temp;Humidity;BMP_temperature;BMP_pressure;BME280_temperature;BME280_humidity;BME280_pressure;Samples;Min_cycle;Max_cycle;Signal;HPM_P1;HPM_P2
2022/02/05 00:00:55;;;;;;;;;;;20.80;34.70;;;;;;464059;256;1416;-38
2022/02/05 00:03:00;;;;;;;;;;;20.80;34.70;;;;;;464996;256;1573;-39
2022/02/05 00:04:58;;;;;;;;;;;20.80;34.70;;;;;;465005;256;2313;-38
2022/02/05 00:06:58;;;;;;;;;;;20.80;34.60;;;;;;465086;256;2421;-38
2022/02/05 00:09:09;;;;;;;;;;;20.80;34.70;;;;;;465261;256;1211;-38
2022/02/05 00:13:45;;;;;;;;;;;20.80;34.70;;;;;;464880;256;1225;-38
2022/02/05 00:15:44;;;;;;;;;;;20.80;34.70;;;;;;464698;252;2390;-38
2022/02/05 00:20:30;;;;;;;;;;;20.80;34.70;;;;;;465096;255;1238;-38
2022/02/05 00:38:48;;;;;;;;;;;20.80;34.60;;;;;;465033;255;1193;-38
2022/02/05 00:40:52;;;;;;;;;;;20.80;34.70;;;;;;463701;256;1557;-38
2022/02/05 00:42:50;;;;;;;;;;;20.80;34.70;;;;;;465147;256;2202;-38
2022/02/05 00:44:50;;;;;;;;;;;20.80;34.60;;;;;;464966;256;2221;-38
2022/02/05 00:46:52;;;;;;;;;;;20.80;34.70;;;;;;465294;256;1194;-38
2022/02/05 00:48:53;;;;;;;;;;;20.70;34.70;;;;;;465201;256;1261;-38
2022/02/05 00:50:59;;;;;;;;;;;20.70;34.70;;;;;;464995;256;1273;-38
2022/02/05 00:52:58;;;;;;;;;;;20.80;34.80;;;;;;464907;256;2293;-38
2022/02/05 00:55:05;;;;;;;;;;;20.80;34.80;;;;;;464998;256;2226;-39
2022/02/05 00:57:20;;;;;;;;;;;20.80;34.80;;;;;;464686;256;2102;-38
2022/02/05 00:59:10;;;;;;;;;;;20.80;34.80;;;;;;464342;256;2269;-38
2022/02/05 01:01:11;;;;;;;;;;;20.80;34.80;;;;;;465142;256;1671;-38
2022/02/05 01:03:13;;;;;;;;;;;20.70;34.80;;;;;;464995;256;1190;-38
2022/02/05 01:05:17;;;;;;;;;;;20.80;34.80;;;;;;465253;256;2134;-38
2022/02/05 01:07:15;;;;;;;;;;;20.70;34.80;;;;;;464850;256;2016;-39
2022/02/05 01:09:21;;;;;;;;;;;20.70;34.80;;;;;;465447;256;1148;-38
2022/02/05 01:11:18;;;;;;;;;;;20.70;34.80;;;;;;465708;255;1536;-38
2022/02/05 01:13:20;;;;;;;;;;;20.70;34.80;;;;;;466000;254;1103;-38
2022/02/05 01:15:25;;;;;;;;;;;20.70;34.80;;;;;;465753;255;1022;-38
2022/02/05 01:17:29;;;;;;;;;;;20.70;34.80;;;;;;465254;256;1621;-39
2022/02/05 01:19:58;;;;;;;;;;;20.70;34.80;;;;;;464540;256;1540;-38
2022/02/05 01:21:49;;;;;;;;;;;20.70;34.80;;;;;;464255;255;2315;-38
2022/02/05 01:23:47;;;;;;;;;;;20.70;34.80;;;;;;464764;256;2307;-38
2022/02/05 01:25:51;;;;;;;;;;;20.70;34.90;;;;;;465808;253;1665;-38
2022/02/05 01:27:50;;;;;;;;;;;20.60;34.90;;;;;;465135;256;2409;-38
2022/02/05 01:30:02;;;;;;;;;;;20.60;34.90;;;;;;465390;255;2150;-38
2022/02/05 01:31:56;;;;;;;;;;;20.60;34.90;;;;;;464441;256;1504;-38
2022/02/05 01:34:03;;;;;;;;;;;20.60;35.00;;;;;;464824;256;2047;-38
2022/02/05 01:36:15;;;;;;;;;;;20.60;35.00;;;;;;464840;256;2205;-38
2022/02/05 01:52:07;;;;;;;;;;;20.60;35.00;;;;;;465630;256;1210;-38
2022/02/05 01:54:27;;;;;;;;;;;20.60;35.00;;;;;;465497;256;2100;-38
2022/02/05 01:56:28;;;;;;;;;;;20.60;35.00;;;;;;465204;255;2153;-38
2022/02/05 01:58:26;;;;;;;;;;;20.60;35.00;;;;;;465377;256;2255;-38
2022/02/05 02:05:04;;;;;;;;;;;20.60;35.00;;;;;;462312;253;2206;-38
2022/02/05 02:07:11;;;;;;;;;;;20.60;35.00;;;;;;470629;252;2370;-38
2022/02/05 02:11:41;;;;;;;;;;;20.60;35.10;;;;;;481890;246;1108;-38
2022/02/05 02:14:03;;;;;;;;;;;20.60;35.10;;;;;;481815;247;1433;-38
2022/02/05 02:15:56;;;;;;;;;;;20.50;35.10;;;;;;480606;247;1976;-38
2022/02/05 02:18:17;;;;;;;;;;;20.60;35.10;;;;;;481496;247;1954;-38
2022/02/05 02:20:28;;;;;;;;;;;20.60;35.10;;;;;;481313;247;2248;-38
2022/02/05 02:22:29;;;;;;;;;;;20.60;35.10;;;;;;481389;247;2292;-38
2022/02/05 02:24:32;;;;;;;;;;;20.50;35.00;;;;;;481652;247;2307;-38
2022/02/05 02:26:36;;;;;;;;;;;20.50;35.00;;;;;;481446;247;1852;-38
2022/02/05 02:28:38;;;;;;;;;;;20.60;35.00;;;;;;480018;248;1531;-38
2022/02/05 02:30:35;;;;;;;;;;;20.50;35.00;;;;;;481432;247;2360;-38
2022/02/05 02:32:33;;;;;;;;;;;20.50;35.10;;;;;;481803;247;1532;-38
2022/02/05 02:34:38;;;;;;;;;;;20.50;35.10;;;;;;482081;247;2235;-39
2022/02/05 02:36:38;;;;;;;;;;;20.60;35.20;;;;;;481516;247;1333;-39
2022/02/05 02:38:43;;;;;;;;;;;20.50;35.10;;;;;;481596;247;2334;-38
2022/02/05 02:40:42;;;;;;;;;;;20.50;35.00;;;;;;481204;247;2152;-38
2022/02/05 02:42:43;;;;;;;;;;;20.60;35.10;;;;;;481391;247;2134;-38
2022/02/05 02:44:39;;;;;;;;;;;20.60;35.10;;;;;;481812;247;2280;-38
2022/02/05 02:46:41;;;;;;;;;;;20.50;35.10;;;;;;481891;247;1639;-38
2022/02/05 02:48:45;;;;;;;;;;;20.60;35.10;;;;;;481867;247;1120;-38
2022/02/05 02:58:00;;;;;;;;;;;20.50;35.20;;;;;;481767;247;1173;-38
2022/02/05 03:00:00;;;;;;;;;;;20.50;35.10;;;;;;481632;247;2085;-38
2022/02/05 03:02:09;;;;;;;;;;;20.50;35.10;;;;;;481410;247;2269;-38
2022/02/05 03:04:02;;;;;;;;;;;20.50;35.10;;;;;;481263;247;2193;-38
2022/02/05 03:06:03;;;;;;;;;;;20.50;35.10;;;;;;481859;247;1428;-38
2022/02/05 03:08:06;;;;;;;;;;;20.50;35.10;;;;;;481890;247;1181;-38
2022/02/05 03:10:07;;;;;;;;;;;20.50;35.10;;;;;;481883;247;1116;-38
2022/02/05 03:12:08;;;;;;;;;;;20.50;35.20;;;;;;481680;247;1286;-38
2022/02/05 03:14:10;;;;;;;;;;;20.50;35.10;;;;;;481768;247;1215;-38
2022/02/05 03:16:20;;;;;;;;;;;20.50;35.10;;;;;;481776;247;1397;-38
2022/02/05 03:18:16;;;;;;;;;;;20.50;35.10;;;;;;481100;247;2182;-39
2022/02/05 03:20:13;;;;;;;;;;;20.50;35.10;;;;;;481686;247;2282;-38
2022/02/05 03:22:15;;;;;;;;;;;20.50;35.10;;;;;;481690;248;1173;-38
2022/02/05 03:24:17;;;;;;;;;;;20.50;35.10;;;;;;482188;247;2203;-38
2022/02/05 03:26:18;;;;;;;;;;;20.50;35.10;;;;;;481726;247;1085;-38
2022/02/05 03:28:20;;;;;;;;;;;20.50;35.10;;;;;;481767;247;1238;-38
2022/02/05 03:30:21;;;;;;;;;;;20.50;35.10;;;;;;482026;247;2442;-38
2022/02/05 03:32:22;;;;;;;;;;;20.50;35.10;;;;;;481685;247;1298;-38
2022/02/05 03:34:23;;;;;;;;;;;20.50;35.00;;;;;;482130;247;1043;-38
2022/02/05 03:36:24;;;;;;;;;;;20.50;35.00;;;;;;482148;247;1256;-38
2022/02/05 03:38:29;;;;;;;;;;;20.60;35.00;;;;;;481974;247;1213;-38
2022/02/05 03:40:27;;;;;;;;;;;20.60;35.00;;;;;;481547;247;1972;-38
2022/02/05 03:42:28;;;;;;;;;;;20.60;35.00;;;;;;481682;247;1397;-38
2022/02/05 03:44:30;;;;;;;;;;;20.50;35.00;;;;;;481690;247;2201;-39
2022/02/05 03:46:31;;;;;;;;;;;20.60;35.00;;;;;;481573;247;1222;-38
2022/02/05 03:48:33;;;;;;;;;;;20.60;35.00;;;;;;481684;247;1191;-38
2022/02/05 03:50:34;;;;;;;;;;;20.60;35.00;;;;;;482133;247;1189;-38
2022/02/05 03:52:36;;;;;;;;;;;20.60;35.00;;;;;;481870;247;1257;-38
2022/02/05 03:54:36;;;;;;;;;;;20.50;35.00;;;;;;481998;247;2476;-38
2022/02/05 03:56:38;;;;;;;;;;;20.50;35.00;;;;;;481698;247;1191;-38
2022/02/05 03:58:39;;;;;;;;;;;20.50;35.00;;;;;;481768;247;1219;-38
2022/02/05 04:00:40;;;;;;;;;;;20.50;35.00;;;;;;482048;247;1377;-38
2022/02/05 04:02:42;;;;;;;;;;;20.50;35.00;;;;;;481787;247;1214;-38
2022/02/05 04:04:43;;;;;;;;;;;20.50;35.00;;;;;;482197;247;2130;-38
2022/02/05 04:06:44;;;;;;;;;;;20.50;35.10;;;;;;481681;247;1316;-38
2022/02/05 04:08:47;;;;;;;;;;;20.50;35.00;;;;;;482147;247;1032;-39
2022/02/05 04:10:51;;;;;;;;;;;20.50;35.00;;;;;;481677;247;2266;-38
2022/02/05 04:17:27;;;;;;;;;;;20.50;35.00;;;;;;482065;246;1625;-38
2022/02/05 04:19:28;;;;;;;;;;;20.60;35.00;;;;;;481959;247;1071;-38
2022/02/05 04:21:31;;;;;;;;;;;20.60;35.00;;;;;;481957;247;1454;-38
2022/02/05 04:23:31;;;;;;;;;;;20.50;35.00;;;;;;482029;247;2277;-38
2022/02/05 04:25:32;;;;;;;;;;;20.50;35.00;;;;;;481743;247;2127;-38
2022/02/05 04:27:34;;;;;;;;;;;20.50;35.00;;;;;;481694;247;1190;-38
2022/02/05 04:29:35;;;;;;;;;;;20.50;35.10;;;;;;481813;247;1179;-38
2022/02/05 04:31:36;;;;;;;;;;;20.50;35.10;;;;;;481516;248;1299;-38
2022/02/05 04:33:38;;;;;;;;;;;20.50;35.10;;;;;;481835;247;1052;-38
2022/02/05 04:35:43;;;;;;;;;;;20.50;35.00;;;;;;482064;247;1290;-38
2022/02/05 04:37:41;;;;;;;;;;;20.50;35.00;;;;;;481441;248;2287;-38
2022/02/05 04:39:49;;;;;;;;;;;20.50;35.00;;;;;;481834;247;1157;-38
2022/02/05 04:41:49;;;;;;;;;;;20.70;34.80;;;;;;481437;247;2234;-38
2022/02/05 04:43:58;;;;;;;;;;;20.90;34.50;;;;;;481698;247;1765;-39
2022/02/05 04:46:25;;;;;;;;;;;21.00;34.10;;;;;;479826;248;2623;-39
2022/02/05 04:48:54;;;;;;;;;;;21.20;33.90;;;;;;480757;247;1666;-39
2022/02/05 04:53:21;;;;;;;;;;;21.40;33.60;;;;;;470607;247;1213;-38
2022/02/05 04:58:00;;;;;;;;;;;21.60;33.30;;;;;;481460;247;1100;-38
2022/02/05 05:00:07;;;;;;;;;;;21.60;33.20;;;;;;481378;247;2015;-38
2022/02/05 05:02:34;;;;;;;;;;;21.70;33.10;;;;;;481384;247;2383;-39
2022/02/05 05:04:30;;;;;;;;;;;21.70;33.00;;;;;;481165;247;2208;-39
2022/02/05 05:09:10;;;;;;;;;;;21.80;32.90;;;;;;465272;254;1347;-38
2022/02/05 05:20:40;;;;;;;;;;;22.00;32.60;;;;;;481776;246;1215;-39
2022/02/05 05:22:42;;;;;;;;;;;22.10;32.60;;;;;;482182;247;1276;-39
2022/02/05 05:24:43;;;;;;;;;;;22.10;32.50;;;;;;482011;247;2134;-39
2022/02/05 05:26:45;;;;;;;;;;;22.10;32.50;;;;;;481628;247;1212;-39
2022/02/05 05:28:46;;;;;;;;;;;22.20;32.50;;;;;;481919;247;1033;-39
2022/02/05 05:30:47;;;;;;;;;;;22.20;32.50;;;;;;481644;247;1395;-39
2022/02/05 05:32:48;;;;;;;;;;;22.20;32.40;;;;;;481815;247;1228;-38
2022/02/05 05:34:50;;;;;;;;;;;22.20;32.40;;;;;;481936;247;973;-38
2022/02/05 05:36:53;;;;;;;;;;;22.20;32.40;;;;;;481653;247;1309;-38
2022/02/05 05:38:58;;;;;;;;;;;22.30;32.40;;;;;;481652;247;2437;-38
2022/02/05 05:40:54;;;;;;;;;;;22.30;32.40;;;;;;481387;247;1341;-38
2022/02/05 05:43:00;;;;;;;;;;;22.30;32.30;;;;;;481767;247;1276;-39
2022/02/05 05:45:16;;;;;;;;;;;22.30;32.30;;;;;;481611;247;2146;-38
2022/02/05 05:47:17;;;;;;;;;;;22.30;32.30;;;;;;480749;247;2390;-39
2022/02/05 05:49:18;;;;;;;;;;;22.30;32.30;;;;;;481980;247;1847;-39
2022/02/05 05:51:17;;;;;;;;;;;22.40;32.30;;;;;;481571;247;2134;-39
2022/02/05 05:53:18;;;;;;;;;;;22.30;32.20;;;;;;481766;247;1098;-39
2022/02/05 05:55:19;;;;;;;;;;;22.40;32.20;;;;;;481763;247;1093;-39
2022/02/05 05:57:21;;;;;;;;;;;22.40;32.20;;;;;;481785;247;1204;-39
2022/02/05 05:59:22;;;;;;;;;;;22.40;32.20;;;;;;481590;248;1534;-39
2022/02/05 06:01:23;;;;;;;;;;;22.40;32.20;;;;;;481967;247;1361;-38
2022/02/05 06:03:25;;;;;;;;;;;22.50;32.20;;;;;;482153;247;1079;-39
2022/02/05 06:05:26;;;;;;;;;;;22.50;32.20;;;;;;482075;247;2197;-39
2022/02/05 06:07:27;;;;;;;;;;;22.50;32.20;;;;;;481845;247;1188;-39
2022/02/05 06:09:29;;;;;;;;;;;22.50;32.20;;;;;;482171;247;1047;-39
2022/02/05 06:11:30;;;;;;;;;;;22.50;32.10;;;;;;482149;247;1204;-39
2022/02/05 06:13:33;;;;;;;;;;;22.50;32.10;;;;;;482204;247;1062;-39
2022/02/05 06:15:33;;;;;;;;;;;22.50;32.10;;;;;;481718;247;2269;-39
2022/02/05 06:17:34;;;;;;;;;;;22.50;32.10;;;;;;481770;247;1158;-39
2022/02/05 06:19:36;;;;;;;;;;;22.50;32.10;;;;;;481698;248;1078;-39
2022/02/05 06:21:37;;;;;;;;;;;22.50;32.10;;;;;;481970;247;1365;-39
2022/02/05 06:23:38;;;;;;;;;;;22.50;32.10;;;;;;481813;247;1039;-39
2022/02/05 06:25:41;;;;;;;;;;;22.50;32.00;;;;;;481730;247;2185;-39
2022/02/05 06:27:41;;;;;;;;;;;22.60;32.10;;;;;;481628;247;2124;-39
2022/02/05 06:29:42;;;;;;;;;;;22.50;32.00;;;;;;481693;247;2102;-39
2022/02/05 06:31:43;;;;;;;;;;;22.60;32.10;;;;;;481611;247;1363;-39
2022/02/05 06:33:45;;;;;;;;;;;22.60;32.10;;;;;;481705;247;1058;-39
2022/02/05 06:35:46;;;;;;;;;;;22.60;32.10;;;;;;481658;247;1236;-39
2022/02/05 06:37:47;;;;;;;;;;;22.60;32.10;;;;;;481679;246;1650;-39
2022/02/05 06:39:48;;;;;;;;;;;22.60;32.00;;;;;;481874;247;1083;-39
2022/02/05 06:41:50;;;;;;;;;;;22.60;32.00;;;;;;481656;247;1269;-38
2022/02/05 06:43:51;;;;;;;;;;;22.70;32.10;;;;;;481907;247;1082;-38
2022/02/05 06:45:52;;;;;;;;;;;22.70;32.00;;;;;;481850;247;2142;-38
2022/02/05 06:47:54;;;;;;;;;;;22.70;32.00;;;;;;481722;247;1107;-39
2022/02/05 06:49:55;;;;;;;;;;;22.70;32.00;;;;;;482059;247;1041;-39
2022/02/05 06:51:56;;;;;;;;;;;22.70;32.00;;;;;;482012;247;1214;-39
2022/02/05 06:53:58;;;;;;;;;;;22.70;32.00;;;;;;482092;247;1059;-39
2022/02/05 06:55:59;;;;;;;;;;;22.70;32.00;;;;;;481900;247;1352;-39
2022/02/05 06:58:00;;;;;;;;;;;22.70;32.00;;;;;;481671;247;1297;-39
2022/02/05 07:00:02;;;;;;;;;;;22.70;32.00;;;;;;482012;247;1286;-39
2022/02/05 07:02:03;;;;;;;;;;;22.70;32.00;;;;;;481674;247;1204;-39
2022/02/05 07:04:05;;;;;;;;;;;22.70;32.00;;;;;;481739;247;1080;-39
2022/02/05 07:06:06;;;;;;;;;;;22.70;32.00;;;;;;481701;247;2114;-39
2022/02/05 07:08:07;;;;;;;;;;;22.70;32.00;;;;;;481926;247;1210;-38
2022/02/05 07:10:09;;;;;;;;;;;22.70;32.00;;;;;;482229;246;1062;-38
2022/02/05 07:12:11;;;;;;;;;;;22.80;32.00;;;;;;481622;247;2114;-39
2022/02/05 07:14:13;;;;;;;;;;;22.70;31.90;;;;;;482017;247;1533;-39
2022/02/05 07:16:16;;;;;;;;;;;22.80;32.00;;;;;;481448;247;2083;-39
2022/02/05 07:18:21;;;;;;;;;;;22.80;32.00;;;;;;481514;247;2124;-39
2022/02/05 07:20:25;;;;;;;;;;;22.80;32.00;;;;;;481233;247;2195;-39
2022/02/05 07:22:17;;;;;;;;;;;22.80;31.90;;;;;;480996;247;1503;-39
2022/02/05 07:24:38;;;;;;;;;;;22.80;32.00;;;;;;481775;247;1062;-39
2022/02/05 07:31:12;;;;;;;;;;;22.80;31.90;;;;;;481850;246;1307;-39
2022/02/05 07:33:13;;;;;;;;;;;22.80;31.90;;;;;;481758;247;1089;-38
2022/02/05 07:35:14;;;;;;;;;;;22.80;31.90;;;;;;481976;246;1041;-39
2022/02/05 07:37:17;;;;;;;;;;;22.80;31.90;;;;;;482141;247;1383;-39
2022/02/05 07:39:17;;;;;;;;;;;22.80;31.90;;;;;;482149;247;2478;-39
2022/02/05 07:41:19;;;;;;;;;;;22.80;32.00;;;;;;481865;247;1320;-39
2022/02/05 07:43:20;;;;;;;;;;;22.80;31.90;;;;;;481665;248;1994;-39
2022/02/05 07:45:21;;;;;;;;;;;22.80;31.90;;;;;;481916;247;1146;-39
2022/02/05 07:47:24;;;;;;;;;;;22.80;31.90;;;;;;481548;247;2126;-39
2022/02/05 07:49:24;;;;;;;;;;;22.80;31.80;;;;;;482059;247;1965;-39
2022/02/05 07:51:25;;;;;;;;;;;22.90;31.90;;;;;;481825;247;1400;-39
2022/02/05 07:53:26;;;;;;;;;;;22.80;31.90;;;;;;481761;247;1058;-39
2022/02/05 07:55:28;;;;;;;;;;;22.90;31.90;;;;;;481916;247;1144;-39
2022/02/05 07:57:30;;;;;;;;;;;22.90;31.90;;;;;;481678;247;1211;-39
2022/02/05 07:59:30;;;;;;;;;;;22.90;31.90;;;;;;482103;247;1721;-39
2022/02/05 08:01:32;;;;;;;;;;;22.90;31.90;;;;;;481620;247;1166;-39
2022/02/05 08:03:33;;;;;;;;;;;22.90;31.90;;;;;;481784;247;1676;-39
2022/02/05 08:05:34;;;;;;;;;;;22.90;31.90;;;;;;482034;247;1170;-39
2022/02/05 08:07:36;;;;;;;;;;;22.90;31.90;;;;;;482089;247;2196;-39
2022/02/05 08:09:50;;;;;;;;;;;22.90;31.80;;;;;;481869;247;1243;-39
2022/02/05 08:11:48;;;;;;;;;;;22.90;31.80;;;;;;481182;247;2481;-39
2022/02/05 08:13:49;;;;;;;;;;;22.90;31.80;;;;;;481496;247;1991;-39
2022/02/05 08:15:51;;;;;;;;;;;22.90;31.80;;;;;;481558;247;1995;-39
2022/02/05 08:17:48;;;;;;;;;;;22.90;31.80;;;;;;481360;247;2466;-38
2022/02/05 08:19:50;;;;;;;;;;;23.00;31.80;;;;;;482148;247;1047;-39
2022/02/05 08:21:51;;;;;;;;;;;23.00;31.80;;;;;;481584;247;1343;-39
2022/02/05 08:23:52;;;;;;;;;;;23.00;31.90;;;;;;481762;247;1092;-39
2022/02/05 08:25:55;;;;;;;;;;;23.00;31.90;;;;;;481777;247;2118;-39
2022/02/05 08:27:55;;;;;;;;;;;23.00;31.90;;;;;;481560;248;2179;-39
2022/02/05 08:29:59;;;;;;;;;;;23.00;31.80;;;;;;482005;247;1047;-39
2022/02/05 08:31:59;;;;;;;;;;;23.00;31.80;;;;;;481485;247;1555;-39
2022/02/05 08:34:00;;;;;;;;;;;22.90;31.80;;;;;;481895;247;982;-39
2022/02/05 08:36:01;;;;;;;;;;;23.00;31.80;;;;;;481871;247;1134;-39
2022/02/05 08:38:02;;;;;;;;;;;23.00;31.80;;;;;;482150;247;1175;-39
2022/02/05 08:40:03;;;;;;;;;;;23.00;31.80;;;;;;482023;247;1052;-39
2022/02/05 08:42:05;;;;;;;;;;;23.00;31.70;;;;;;482035;247;1299;-39
2022/02/05 08:44:06;;;;;;;;;;;23.00;31.70;;;;;;481703;247;1230;-39
2022/02/05 08:46:07;;;;;;;;;;;23.00;31.70;;;;;;481642;247;2126;-39
2022/02/05 08:48:09;;;;;;;;;;;23.00;31.70;;;;;;481708;247;1208;-39
2022/02/05 08:50:10;;;;;;;;;;;23.00;31.80;;;;;;481790;247;1111;-39
2022/02/05 08:52:12;;;;;;;;;;;23.00;31.80;;;;;;481660;247;1239;-39
2022/02/05 08:54:13;;;;;;;;;;;23.00;31.80;;;;;;481664;247;1217;-38
2022/02/05 08:56:14;;;;;;;;;;;23.00;31.70;;;;;;481928;247;1492;-38
2022/02/05 08:58:15;;;;;;;;;;;23.00;31.70;;;;;;481708;246;1180;-39
2022/02/05 09:00:23;;;;;;;;;;;23.10;31.80;;;;;;482172;247;1072;-39
2022/02/05 09:02:23;;;;;;;;;;;23.10;31.70;;;;;;481244;247;2344;-39
2022/02/05 09:04:27;;;;;;;;;;;23.10;31.70;;;;;;481684;247;1783;-39
2022/02/05 09:06:26;;;;;;;;;;;23.10;31.70;;;;;;481150;247;2201;-39
2022/02/05 09:08:26;;;;;;;;;;;23.10;31.70;;;;;;481693;247;2296;-39
2022/02/05 09:10:30;;;;;;;;;;;23.10;31.70;;;;;;481564;247;2468;-38
2022/02/05 09:12:43;;;;;;;;;;;23.10;31.70;;;;;;481315;247;1974;-38
2022/02/05 09:14:35;;;;;;;;;;;23.10;31.70;;;;;;481060;247;2338;-39
2022/02/05 09:16:34;;;;;;;;;;;23.10;31.70;;;;;;481467;247;1840;-39
2022/02/05 09:18:35;;;;;;;;;;;23.10;31.70;;;;;;481744;247;1228;-39
2022/02/05 09:20:36;;;;;;;;;;;23.10;31.70;;;;;;482147;247;1090;-39
2022/02/05 09:22:38;;;;;;;;;;;23.10;31.70;;;;;;481684;247;1261;-39
2022/02/05 09:24:39;;;;;;;;;;;23.10;31.70;;;;;;481732;247;1201;-39
2022/02/05 09:26:44;;;;;;;;;;;23.10;31.70;;;;;;481532;247;2209;-39
2022/02/05 09:28:43;;;;;;;;;;;23.10;31.70;;;;;;481478;247;2319;-39
2022/02/05 09:30:48;;;;;;;;;;;23.10;31.70;;;;;;481814;247;1171;-39
2022/02/05 09:32:46;;;;;;;;;;;23.10;31.70;;;;;;481465;247;2123;-39
2022/02/05 09:34:48;;;;;;;;;;;23.10;31.70;;;;;;481890;247;1053;-39
2022/02/05 09:36:49;;;;;;;;;;;23.10;31.70;;;;;;481830;247;1305;-39
2022/02/05 09:38:51;;;;;;;;;;;23.10;31.70;;;;;;481835;247;1039;-39
2022/02/05 09:40:53;;;;;;;;;;;23.10;31.70;;;;;;481843;247;1327;-39
2022/02/05 09:42:54;;;;;;;;;;;23.00;31.80;;;;;;481813;247;1200;-39
2022/02/05 09:44:55;;;;;;;;;;;22.90;32.00;;;;;;481723;247;1105;-39
2022/02/05 09:46:56;;;;;;;;;;;22.70;32.30;;;;;;481634;247;2127;-39
2022/02/05 09:48:58;;;;;;;;;;;22.50;32.50;;;;;;481852;247;1282;-39
2022/02/05 09:51:04;;;;;;;;;;;22.40;32.70;;;;;;482107;247;1176;-39
2022/02/05 09:53:12;;;;;;;;;;;22.30;32.90;;;;;;481419;247;2238;-38
2022/02/05 09:55:03;;;;;;;;;;;22.20;33.10;;;;;;481073;247;1560;-39
2022/02/05 09:57:04;;;;;;;;;;;22.20;33.20;;;;;;481952;247;1228;-38
2022/02/05 09:59:05;;;;;;;;;;;22.10;33.30;;;;;;481912;247;1217;-39
2022/02/05 10:01:10;;;;;;;;;;;22.10;33.40;;;;;;481604;247;1278;-39
2022/02/05 10:03:08;;;;;;;;;;;22.00;33.50;;;;;;481479;247;2537;-39
2022/02/05 10:05:11;;;;;;;;;;;22.00;33.50;;;;;;482164;247;1062;-39
2022/02/05 10:07:11;;;;;;;;;;;21.90;33.50;;;;;;481579;247;2339;-39
2022/02/05 10:09:12;;;;;;;;;;;22.00;33.70;;;;;;482170;247;1073;-39
2022/02/05 10:11:13;;;;;;;;;;;21.90;33.70;;;;;;481993;247;1306;-39
2022/02/05 10:13:16;;;;;;;;;;;21.90;33.70;;;;;;482177;247;1097;-39
2022/02/05 10:15:16;;;;;;;;;;;21.80;33.70;;;;;;481673;247;2648;-39
2022/02/05 10:17:19;;;;;;;;;;;21.80;33.80;;;;;;481615;247;1170;-39
2022/02/05 10:19:19;;;;;;;;;;;21.80;33.80;;;;;;481549;247;2566;-39
2022/02/05 10:21:20;;;;;;;;;;;21.80;33.90;;;;;;481987;247;1158;-38
2022/02/05 10:23:22;;;;;;;;;;;21.70;33.80;;;;;;481990;247;1096;-38
2022/02/05 10:25:24;;;;;;;;;;;21.80;33.90;;;;;;482019;247;1155;-39
2022/02/05 10:27:24;;;;;;;;;;;21.70;33.90;;;;;;482125;247;2200;-39
2022/02/05 10:29:26;;;;;;;;;;;21.70;33.90;;;;;;482194;247;1046;-39
2022/02/05 10:31:27;;;;;;;;;;;21.70;33.90;;;;;;481803;247;1577;-39
2022/02/05 10:33:32;;;;;;;;;;;21.70;33.90;;;;;;481998;247;1236;-39
2022/02/05 10:35:34;;;;;;;;;;;21.70;34.00;;;;;;481919;247;2029;-39
2022/02/05 10:37:36;;;;;;;;;;;21.70;34.00;;;;;;481581;247;2100;-39
2022/02/05 10:39:52;;;;;;;;;;;21.60;34.00;;;;;;481454;247;2134;-38
2022/02/05 10:43:54;;;;;;;;;;;21.60;34.00;;;;;;481113;246;1163;-39
2022/02/05 10:45:56;;;;;;;;;;;21.60;34.00;;;;;;480907;248;1313;-39
2022/02/05 10:47:57;;;;;;;;;;;21.60;34.00;;;;;;481200;248;2115;-39
2022/02/05 10:49:58;;;;;;;;;;;21.60;34.10;;;;;;480799;248;1174;-39
2022/02/05 10:52:00;;;;;;;;;;;21.60;34.00;;;;;;480866;248;1197;-38
2022/02/05 10:54:05;;;;;;;;;;;21.50;34.00;;;;;;481872;247;2103;-38
2022/02/05 10:56:08;;;;;;;;;;;21.60;34.10;;;;;;481904;247;2201;-38
2022/02/05 11:05:22;;;;;;;;;;;21.50;34.10;;;;;;473003;247;1171;-39
2022/02/05 11:07:18;;;;;;;;;;;21.50;34.10;;;;;;471270;252;2147;-39
2022/02/05 11:09:19;;;;;;;;;;;21.50;34.10;;;;;;473076;248;1098;-39
2022/02/05 11:13:59;;;;;;;;;;;21.50;34.10;;;;;;482175;246;1254;-38
2022/02/05 11:18:38;;;;;;;;;;;21.50;34.10;;;;;;482124;247;1255;-38
2022/02/05 11:20:32;;;;;;;;;;;21.50;34.10;;;;;;480929;247;2175;-39
2022/02/05 11:22:34;;;;;;;;;;;21.40;34.10;;;;;;481477;247;1179;-38
2022/02/05 11:24:36;;;;;;;;;;;21.40;34.10;;;;;;481841;247;1060;-38
2022/02/05 11:26:36;;;;;;;;;;;21.40;34.10;;;;;;481690;247;2494;-38
2022/02/05 11:28:38;;;;;;;;;;;21.40;34.20;;;;;;482055;247;2189;-38
2022/02/05 11:30:43;;;;;;;;;;;21.40;34.20;;;;;;481897;247;1637;-38
2022/02/05 11:32:44;;;;;;;;;;;21.40;34.10;;;;;;482047;247;1181;-39
2022/02/05 11:34:49;;;;;;;;;;;21.40;34.00;;;;;;481877;247;1181;-39
2022/02/05 11:36:47;;;;;;;;;;;21.40;34.10;;;;;;481518;247;2408;-38
2022/02/05 11:38:49;;;;;;;;;;;21.40;34.10;;;;;;482154;247;1172;-38
2022/02/05 11:40:51;;;;;;;;;;;21.50;34.10;;;;;;482117;247;1100;-38
2022/02/05 11:42:51;;;;;;;;;;;21.40;34.10;;;;;;481596;248;2424;-38
2022/02/05 11:44:53;;;;;;;;;;;21.40;34.10;;;;;;482080;247;1225;-38
2022/02/05 11:46:54;;;;;;;;;;;21.40;34.10;;;;;;481600;247;2130;-38
2022/02/05 11:48:56;;;;;;;;;;;21.40;34.10;;;;;;481813;247;1217;-38
2022/02/05 11:50:57;;;;;;;;;;;21.30;34.20;;;;;;481656;247;1049;-38
2022/02/05 11:52:58;;;;;;;;;;;21.40;34.20;;;;;;481833;247;1194;-38
2022/02/05 11:54:59;;;;;;;;;;;21.40;34.20;;;;;;481883;247;1058;-38
2022/02/05 11:57:05;;;;;;;;;;;21.40;34.10;;;;;;481730;247;1185;-38
2022/02/05 11:59:02;;;;;;;;;;;21.40;34.10;;;;;;481718;247;2207;-38
2022/02/05 12:01:04;;;;;;;;;;;21.40;34.10;;;;;;481605;247;1144;-38
2022/02/05 12:03:10;;;;;;;;;;;21.40;34.10;;;;;;481681;247;1068;-39
2022/02/05 12:05:06;;;;;;;;;;;21.40;34.10;;;;;;481534;247;2096;-38
2022/02/05 12:07:08;;;;;;;;;;;21.40;34.10;;;;;;482085;247;2125;-38
2022/02/05 12:09:09;;;;;;;;;;;21.40;34.10;;;;;;481708;247;1110;-39
2022/02/05 12:11:10;;;;;;;;;;;21.40;34.10;;;;;;481759;247;1192;-38
2022/02/05 12:13:12;;;;;;;;;;;21.40;34.00;;;;;;481691;247;1166;-38
2022/02/05 12:15:13;;;;;;;;;;;21.40;34.10;;;;;;481733;247;1061;-38
2022/02/05 12:17:17;;;;;;;;;;;21.40;34.10;;;;;;481855;247;1204;-39
2022/02/05 12:19:17;;;;;;;;;;;21.40;34.00;;;;;;481529;247;2137;-39
2022/02/05 12:21:27;;;;;;;;;;;21.40;34.10;;;;;;481512;247;2175;-38
2022/02/05 12:23:29;;;;;;;;;;;21.40;34.10;;;;;;481020;247;1933;-38
2022/02/05 12:25:25;;;;;;;;;;;21.40;34.10;;;;;;481382;247;1615;-38
2022/02/05 12:27:26;;;;;;;;;;;21.40;34.10;;;;;;481793;247;2135;-38
2022/02/05 12:29:29;;;;;;;;;;;21.40;34.10;;;;;;482039;247;1057;-38
2022/02/05 12:31:33;;;;;;;;;;;21.40;34.10;;;;;;481649;248;2344;-38
2022/02/05 12:33:30;;;;;;;;;;;21.40;34.00;;;;;;481475;247;2785;-38
2022/02/05 12:35:32;;;;;;;;;;;21.40;34.10;;;;;;481627;248;1188;-38
2022/02/05 12:37:33;;;;;;;;;;;21.40;34.10;;;;;;481670;247;1242;-38
2022/02/05 12:39:34;;;;;;;;;;;21.40;34.10;;;;;;482016;247;1266;-38
2022/02/05 12:41:36;;;;;;;;;;;21.40;34.00;;;;;;481796;247;1424;-38
2022/02/05 12:43:37;;;;;;;;;;;21.40;34.00;;;;;;481832;247;1091;-38
2022/02/05 12:45:39;;;;;;;;;;;21.40;34.00;;;;;;481720;247;1073;-38
2022/02/05 12:47:43;;;;;;;;;;;21.40;34.00;;;;;;481689;247;2426;-38
2022/02/05 12:49:51;;;;;;;;;;;21.40;34.00;;;;;;481830;247;1760;-38
2022/02/05 12:51:48;;;;;;;;;;;21.40;34.00;;;;;;481464;247;1923;-39
2022/02/05 12:53:49;;;;;;;;;;;21.40;34.10;;;;;;481803;247;1073;-39
2022/02/05 12:55:51;;;;;;;;;;;21.40;34.10;;;;;;481718;247;1227;-38
2022/02/05 12:57:52;;;;;;;;;;;21.40;34.00;;;;;;481824;247;1161;-38
2022/02/05 12:59:54;;;;;;;;;;;21.40;34.00;;;;;;481832;247;1046;-38
2022/02/05 13:01:55;;;;;;;;;;;21.40;34.10;;;;;;481527;247;2335;-38
2022/02/05 13:03:56;;;;;;;;;;;21.40;34.00;;;;;;481900;247;1144;-38
2022/02/05 13:05:57;;;;;;;;;;;21.40;34.10;;;;;;481635;247;1330;-38
2022/02/05 13:07:58;;;;;;;;;;;21.40;34.00;;;;;;481669;247;2197;-38
2022/02/05 13:10:01;;;;;;;;;;;21.40;34.00;;;;;;481683;247;1206;-38
2022/02/05 13:12:02;;;;;;;;;;;21.40;34.00;;;;;;481689;247;2324;-38
2022/02/05 13:14:02;;;;;;;;;;;21.40;34.00;;;;;;481673;247;2241;-39
2022/02/05 13:16:04;;;;;;;;;;;21.40;34.00;;;;;;482079;247;1161;-39
2022/02/05 13:18:16;;;;;;;;;;;21.40;34.00;;;;;;481850;247;1149;-39
2022/02/05 13:24:40;;;;;;;;;;;21.40;34.00;;;;;;481541;247;2351;-39
2022/02/05 13:25:02;;;;;;;;;;;21.30;34.00;;;;;;482009;246;2056;-38
2022/02/05 13:27:09;;;;;;;;;;;21.40;34.00;;;;;;481560;247;2197;-38
2022/02/05 13:29:20;;;;;;;;;;;21.40;34.00;;;;;;481191;247;2129;-39
2022/02/05 13:33:53;;;;;;;;;;;21.40;34.00;;;;;;482151;246;1151;-38
2022/02/05 13:35:46;;;;;;;;;;;21.40;34.10;;;;;;481399;247;2232;-38
2022/02/05 13:37:52;;;;;;;;;;;21.30;34.00;;;;;;482105;247;1115;-38